sensor_id;sensor_type;location;lat;lon;timestamp;pressure;altitude;pressure_sealevel;temperature;humidity
44457;BME280;30159;49.316;8.558;2023-08-20T00:00:08;100656.72;;;26.47;99.75
44457;BME280;30159;49.316;8.558;2023-08-20T00:02:36;100659.03;;;26.42;99.89
44457;BME280;30159;49.316;8.558;2023-08-20T00:05:04;100662.19;;;26.40;99.22
44457;BME280;30159;49.316;8.558;2023-08-20T00:07:31;100665.00;;;26.44;98.43
44457;BME280;30159;49.316;8.558;2023-08-20T00:09:59;100665.34;;;26.42;97.45
44457;BME280;30159;49.316;8.558;2023-08-20T00:12:26;100641.44;;;26.20;97.77
44457;BME280;30159;49.316;8.558;2023-08-20T00:14:55;100654.88;;;26.18;98.84
44457;BME280;30159;49.316;8.558;2023-08-20T00:17:24;100652.41;;;26.13;98.78
44457;BME280;30159;49.316;8.558;2023-08-20T00:19:53;100668.94;;;26.05;97.83
44457;BME280;30159;49.316;8.558;2023-08-20T00:22:21;100662.53;;;25.98;97.72
44457;BME280;30159;49.316;8.558;2023-08-20T00:24:48;100666.88;;;25.99;98.14
44457;BME280;30159;49.316;8.558;2023-08-20T00:27:16;100655.47;;;26.00;97.83
44457;BME280;30159;49.316;8.558;2023-08-20T00:29:43;100622.03;;;25.79;97.25
44457;BME280;30159;49.316;8.558;2023-08-20T00:32:10;100670.16;;;26.08;97.85
44457;BME280;30159;49.316;8.558;2023-08-20T00:34:36;100661.03;;;26.04;98.70
44457;BME280;30159;49.316;8.558;2023-08-20T00:37:03;100663.03;;;26.07;98.19
44457;BME280;30159;49.316;8.558;2023-08-20T00:39:30;100673.34;;;26.10;98.23
44457;BME280;30159;49.316;8.558;2023-08-20T00:41:56;100672.19;;;26.11;98.32
44457;BME280;30159;49.316;8.558;2023-08-20T00:44:24;100675.69;;;26.08;98.35
44457;BME280;30159;49.316;8.558;2023-08-20T00:46:51;100670.47;;;25.99;99.38
44457;BME280;30159;49.316;8.558;2023-08-20T00:49:18;100660.81;;;25.86;100.00
44457;BME280;30159;49.316;8.558;2023-08-20T00:51:45;100505.16;;;24.77;100.00
44457;BME280;30159;49.316;8.558;2023-08-20T00:54:12;100665.47;;;25.78;100.00
44457;BME280;30159;49.316;8.558;2023-08-20T00:56:38;100553.19;;;25.02;99.62
44457;BME280;30159;49.316;8.558;2023-08-20T00:59:05;100681.28;;;25.81;100.00
44457;BME280;30159;49.316;8.558;2023-08-20T01:01:34;100679.56;;;25.70;99.85
44457;BME280;30159;49.316;8.558;2023-08-20T01:04:00;100673.31;;;25.76;99.27
44457;BME280;30159;49.316;8.558;2023-08-20T01:06:33;100684.16;;;25.89;98.70
44457;BME280;30159;49.316;8.558;2023-08-20T01:09:09;100671.06;;;25.85;98.40
44457;BME280;30159;49.316;8.558;2023-08-20T01:11:45;100663.94;;;25.84;98.07
44457;BME280;30159;49.316;8.558;2023-08-20T01:14:16;100678.09;;;25.79;98.58
44457;BME280;30159;49.316;8.558;2023-08-20T01:16:45;100677.66;;;25.77;99.41
44457;BME280;30159;49.316;8.558;2023-08-20T01:19:17;100674.88;;;25.74;100.00
44457;BME280;30159;49.316;8.558;2023-08-20T01:21:52;100670.41;;;25.65;100.00
44457;BME280;30159;49.316;8.558;2023-08-20T01:24:34;100678.34;;;25.67;100.00
44457;BME280;30159;49.316;8.558;2023-08-20T01:27:19;100667.28;;;25.67;99.58
44457;BME280;30159;49.316;8.558;2023-08-20T01:29:55;100681.38;;;25.58;100.00
44457;BME280;30159;49.316;8.558;2023-08-20T01:32:22;100680.09;;;25.52;100.00
44457;BME280;30159;49.316;8.558;2023-08-20T01:34:49;100678.16;;;25.53;100.00
44457;BME280;30159;49.316;8.558;2023-08-20T01:37:16;100677.75;;;25.54;100.00
44457;BME280;30159;49.316;8.558;2023-08-20T01:39:42;100673.78;;;25.52;100.00
44457;BME280;30159;49.316;8.558;2023-08-20T01:42:09;100669.78;;;25.46;100.00
44457;BME280;30159;49.316;8.558;2023-08-20T01:44:36;100673.59;;;25.37;100.00
44457;BME280;30159;49.316;8.558;2023-08-20T01:47:05;100677.16;;;25.38;100.00
44457;BME280;30159;49.316;8.558;2023-08-20T01:49:31;100662.56;;;25.37;100.00
44457;BME280;30159;49.316;8.558;2023-08-20T01:51:58;100660.06;;;25.29;100.00
44457;BME280;30159;49.316;8.558;2023-08-20T01:54:25;100660.81;;;25.26;100.00
44457;BME280;30159;49.316;8.558;2023-08-20T01:56:51;100658.81;;;25.22;100.00
44457;BME280;30159;49.316;8.558;2023-08-20T01:59:19;100659.47;;;25.16;100.00
44457;BME280;30159;49.316;8.558;2023-08-20T02:01:46;100654.22;;;25.07;100.00
44457;BME280;30159;49.316;8.558;2023-08-20T02:04:14;100623.91;;;24.84;100.00
44457;BME280;30159;49.316;8.558;2023-08-20T02:06:41;100621.78;;;24.74;100.00
44457;BME280;30159;49.316;8.558;2023-08-20T02:09:08;100669.75;;;24.92;100.00
44457;BME280;30159;49.316;8.558;2023-08-20T02:11:34;100657.91;;;24.92;100.00
44457;BME280;30159;49.316;8.558;2023-08-20T02:14:01;100660.16;;;24.83;100.00
44457;BME280;30159;49.316;8.558;2023-08-20T02:16:28;100656.53;;;24.78;100.00
44457;BME280;30159;49.316;8.558;2023-08-20T02:18:54;100643.66;;;24.63;100.00
44457;BME280;30159;49.316;8.558;2023-08-20T02:21:22;100653.59;;;24.68;100.00
44457;BME280;30159;49.316;8.558;2023-08-20T02:23:49;100616.81;;;24.37;100.00
44457;BME280;30159;49.316;8.558;2023-08-20T02:26:15;100657.34;;;24.56;100.00
44457;BME280;30159;49.316;8.558;2023-08-20T02:28:42;100652.56;;;24.53;100.00
44457;BME280;30159;49.316;8.558;2023-08-20T02:31:08;100649.75;;;24.49;100.00
44457;BME280;30159;49.316;8.558;2023-08-20T02:33:35;100657.84;;;24.42;100.00
44457;BME280;30159;49.316;8.558;2023-08-20T02:36:02;100623.47;;;24.13;100.00
44457;BME280;30159;49.316;8.558;2023-08-20T02:38:30;100656.63;;;24.39;100.00
44457;BME280;30159;49.316;8.558;2023-08-20T02:40:57;100663.25;;;24.35;100.00
44457;BME280;30159;49.316;8.558;2023-08-20T02:43:24;100661.22;;;24.32;100.00
44457;BME280;30159;49.316;8.558;2023-08-20T02:45:50;100661.53;;;24.27;100.00
44457;BME280;30159;49.316;8.558;2023-08-20T02:48:17;100668.56;;;24.24;100.00
44457;BME280;30159;49.316;8.558;2023-08-20T02:50:44;100666.19;;;24.23;100.00
44457;BME280;30159;49.316;8.558;2023-08-20T02:53:10;100674.75;;;24.17;100.00
44457;BME280;30159;49.316;8.558;2023-08-20T02:55:38;100677.09;;;24.15;100.00
44457;BME280;30159;49.316;8.558;2023-08-20T02:58:05;100664.88;;;24.16;100.00
44457;BME280;30159;49.316;8.558;2023-08-20T03:00:33;100668.81;;;24.15;100.00
44457;BME280;30159;49.316;8.558;2023-08-20T03:02:59;100664.25;;;24.04;100.00
44457;BME280;30159;49.316;8.558;2023-08-20T03:05:26;100667.66;;;23.97;100.00
44457;BME280;30159;49.316;8.558;2023-08-20T03:07:53;100666.78;;;23.93;100.00
44457;BME280;30159;49.316;8.558;2023-08-20T03:10:19;100670.88;;;23.99;100.00
44457;BME280;30159;49.316;8.558;2023-08-20T03:12:49;100674.41;;;24.00;100.00
44457;BME280;30159;49.316;8.558;2023-08-20T03:15:16;100669.56;;;23.93;100.00
44457;BME280;30159;49.316;8.558;2023-08-20T03:17:43;100660.84;;;23.91;100.00
44457;BME280;30159;49.316;8.558;2023-08-20T03:20:10;100667.09;;;23.88;100.00
44457;BME280;30159;49.316;8.558;2023-08-20T03:22:37;100671.72;;;24.03;100.00
44457;BME280;30159;49.316;8.558;2023-08-20T03:25:05;100671.94;;;23.94;100.00
44457;BME280;30159;49.316;8.558;2023-08-20T03:27:31;100676.94;;;23.89;100.00
44457;BME280;30159;49.316;8.558;2023-08-20T03:29:59;100671.72;;;23.84;100.00
44457;BME280;30159;49.316;8.558;2023-08-20T03:32:26;100630.25;;;23.57;100.00
44457;BME280;30159;49.316;8.558;2023-08-20T03:34:52;100671.00;;;23.87;100.00
44457;BME280;30159;49.316;8.558;2023-08-20T03:37:21;100670.94;;;23.83;100.00
44457;BME280;30159;49.316;8.558;2023-08-20T03:39:50;100675.22;;;23.81;100.00
44457;BME280;30159;49.316;8.558;2023-08-20T03:42:16;100668.41;;;23.74;100.00
44457;BME280;30159;49.316;8.558;2023-08-20T03:44:43;100594.06;;;23.20;100.00
44457;BME280;30159;49.316;8.558;2023-08-20T03:47:11;100668.66;;;23.69;100.00
44457;BME280;30159;49.316;8.558;2023-08-20T03:49:37;100669.81;;;23.68;100.00
44457;BME280;30159;49.316;8.558;2023-08-20T03:52:04;100625.16;;;23.40;100.00
44457;BME280;30159;49.316;8.558;2023-08-20T03:54:32;100680.41;;;23.66;100.00
44457;BME280;30159;49.316;8.558;2023-08-20T03:56:59;100524.88;;;22.66;100.00
44457;BME280;30159;49.316;8.558;2023-08-20T03:59:26;100677.50;;;23.59;100.00
44457;BME280;30159;49.316;8.558;2023-08-20T04:01:52;100674.31;;;23.57;100.00
44457;BME280;30159;49.316;8.558;2023-08-20T04:04:20;100679.22;;;23.48;100.00
44457;BME280;30159;49.316;8.558;2023-08-20T04:06:47;100608.38;;;22.93;100.00
44457;BME280;30159;49.316;8.558;2023-08-20T04:09:14;100657.88;;;23.25;100.00
44457;BME280;30159;49.316;8.558;2023-08-20T04:11:42;100694.50;;;23.45;100.00
44457;BME280;30159;49.316;8.558;2023-08-20T04:14:08;100697.72;;;23.47;100.00
44457;BME280;30159;49.316;8.558;2023-08-20T04:16:35;100692.56;;;23.46;100.00
44457;BME280;30159;49.316;8.558;2023-08-20T04:19:01;100688.19;;;23.45;100.00
44457;BME280;30159;49.316;8.558;2023-08-20T04:21:29;100692.09;;;23.44;100.00
44457;BME280;30159;49.316;8.558;2023-08-20T04:23:56;100690.53;;;23.43;100.00
44457;BME280;30159;49.316;8.558;2023-08-20T04:26:22;100688.91;;;23.42;100.00
44457;BME280;30159;49.316;8.558;2023-08-20T04:28:49;100674.63;;;23.36;100.00
44457;BME280;30159;49.316;8.558;2023-08-20T04:31:15;100677.91;;;23.42;100.00
44457;BME280;30159;49.316;8.558;2023-08-20T04:33:42;100677.16;;;23.45;100.00
44457;BME280;30159;49.316;8.558;2023-08-20T04:36:08;100680.38;;;23.47;100.00
44457;BME280;30159;49.316;8.558;2023-08-20T04:38:36;100645.28;;;23.24;100.00
44457;BME280;30159;49.316;8.558;2023-08-20T04:41:03;100685.47;;;23.64;100.00
44457;BME280;30159;49.316;8.558;2023-08-20T04:43:29;100681.16;;;23.83;100.00
44457;BME280;30159;49.316;8.558;2023-08-20T04:45:56;100684.94;;;23.94;100.00
44457;BME280;30159;49.316;8.558;2023-08-20T04:48:22;100679.47;;;23.97;100.00
44457;BME280;30159;49.316;8.558;2023-08-20T04:50:49;100700.56;;;24.09;100.00
44457;BME280;30159;49.316;8.558;2023-08-20T04:53:15;100714.66;;;23.85;100.00
44457;BME280;30159;49.316;8.558;2023-08-20T04:55:44;100705.34;;;23.73;100.00
44457;BME280;30159;49.316;8.558;2023-08-20T04:58:10;100706.16;;;23.74;100.00
44457;BME280;30159;49.316;8.558;2023-08-20T05:00:37;100710.66;;;23.82;100.00
44457;BME280;30159;49.316;8.558;2023-08-20T05:03:04;100709.56;;;23.87;100.00
44457;BME280;30159;49.316;8.558;2023-08-20T05:05:31;100719.00;;;23.86;100.00
44457;BME280;30159;49.316;8.558;2023-08-20T05:07:57;100719.88;;;23.90;100.00
44457;BME280;30159;49.316;8.558;2023-08-20T05:10:24;100722.19;;;23.88;100.00
44457;BME280;30159;49.316;8.558;2023-08-20T05:12:51;100724.00;;;24.00;100.00
44457;BME280;30159;49.316;8.558;2023-08-20T05:15:18;100722.50;;;24.02;100.00
44457;BME280;30159;49.316;8.558;2023-08-20T05:17:45;100727.13;;;23.98;100.00
44457;BME280;30159;49.316;8.558;2023-08-20T05:20:12;100725.09;;;24.14;100.00
44457;BME280;30159;49.316;8.558;2023-08-20T05:22:40;100721.50;;;24.33;100.00
44457;BME280;30159;49.316;8.558;2023-08-20T05:25:07;100718.84;;;24.37;100.00
44457;BME280;30159;49.316;8.558;2023-08-20T05:27:34;100724.19;;;24.49;100.00
44457;BME280;30159;49.316;8.558;2023-08-20T05:30:02;100713.09;;;24.46;100.00
44457;BME280;30159;49.316;8.558;2023-08-20T05:32:29;100724.84;;;24.62;100.00
44457;BME280;30159;49.316;8.558;2023-08-20T05:34:56;100726.94;;;24.69;100.00
44457;BME280;30159;49.316;8.558;2023-08-20T05:37:22;100726.00;;;24.61;100.00
44457;BME280;30159;49.316;8.558;2023-08-20T05:39:49;100686.38;;;24.50;100.00
44457;BME280;30159;49.316;8.558;2023-08-20T05:42:16;100734.50;;;25.21;100.00
44457;BME280;30159;49.316;8.558;2023-08-20T05:44:42;100742.88;;;25.25;100.00
44457;BME280;30159;49.316;8.558;2023-08-20T05:47:10;100752.56;;;25.42;100.00
44457;BME280;30159;49.316;8.558;2023-08-20T05:49:36;100753.47;;;25.50;100.00
44457;BME280;30159;49.316;8.558;2023-08-20T05:52:03;100710.88;;;25.51;100.00
44457;BME280;30159;49.316;8.558;2023-08-20T05:54:30;100756.66;;;25.78;99.91
44457;BME280;30159;49.316;8.558;2023-08-20T05:56:57;100604.22;;;24.86;100.00
44457;BME280;30159;49.316;8.558;2023-08-20T05:59:24;100754.53;;;25.68;100.00
44457;BME280;30159;49.316;8.558;2023-08-20T06:01:52;100767.09;;;25.62;100.00
44457;BME280;30159;49.316;8.558;2023-08-20T06:04:21;100754.59;;;25.45;100.00
44457;BME280;30159;49.316;8.558;2023-08-20T06:06:47;100758.66;;;25.55;100.00
44457;BME280;30159;49.316;8.558;2023-08-20T06:09:14;100756.44;;;25.37;100.00
44457;BME280;30159;49.316;8.558;2023-08-20T06:11:41;100761.88;;;25.30;100.00
44457;BME280;30159;49.316;8.558;2023-08-20T06:14:10;100761.34;;;25.21;100.00
44457;BME280;30159;49.316;8.558;2023-08-20T06:16:36;100742.22;;;25.35;100.00
44457;BME280;30159;49.316;8.558;2023-08-20T06:19:03;100761.38;;;26.08;100.00
44457;BME280;30159;49.316;8.558;2023-08-20T06:21:31;100771.50;;;27.53;93.79
44457;BME280;30159;49.316;8.558;2023-08-20T06:23:57;100764.88;;;28.67;85.68
44457;BME280;30159;49.316;8.558;2023-08-20T06:26:24;100758.41;;;29.96;78.75
44457;BME280;30159;49.316;8.558;2023-08-20T06:28:50;100767.03;;;30.23;77.07
44457;BME280;30159;49.316;8.558;2023-08-20T06:31:17;100776.72;;;29.93;77.36
44457;BME280;30159;49.316;8.558;2023-08-20T06:33:44;100777.19;;;29.02;80.97
44457;BME280;30159;49.316;8.558;2023-08-20T06:36:10;100777.56;;;28.61;84.76
44457;BME280;30159;49.316;8.558;2023-08-20T06:38:38;100764.84;;;28.53;84.08
44457;BME280;30159;49.316;8.558;2023-08-20T06:41:05;100774.81;;;28.79;83.27
44457;BME280;30159;49.316;8.558;2023-08-20T06:43:31;100772.81;;;29.44;80.60
44457;BME280;30159;49.316;8.558;2023-08-20T06:45:58;100765.72;;;29.22;80.62
44457;BME280;30159;49.316;8.558;2023-08-20T06:48:24;100779.50;;;28.46;84.95
44457;BME280;30159;49.316;8.558;2023-08-20T06:50:52;100784.22;;;27.58;90.05
44457;BME280;30159;49.316;8.558;2023-08-20T06:53:18;100778.91;;;27.35;92.84
44457;BME280;30159;49.316;8.558;2023-08-20T06:55:46;100785.50;;;27.75;90.52
44457;BME280;30159;49.316;8.558;2023-08-20T06:58:13;100783.47;;;27.68;91.03
44457;BME280;30159;49.316;8.558;2023-08-20T07:00:39;100786.53;;;27.52;92.38
44457;BME280;30159;49.316;8.558;2023-08-20T07:03:06;100784.47;;;28.01;90.26
44457;BME280;30159;49.316;8.558;2023-08-20T07:05:32;100779.38;;;28.14;88.78
44457;BME280;30159;49.316;8.558;2023-08-20T07:07:59;100784.91;;;28.17;88.23
44457;BME280;30159;49.316;8.558;2023-08-20T07:10:26;100790.03;;;28.08;89.50
44457;BME280;30159;49.316;8.558;2023-08-20T07:12:54;100794.09;;;28.32;89.50
44457;BME280;30159;49.316;8.558;2023-08-20T07:15:20;100784.19;;;28.28;89.31
44457;BME280;30159;49.316;8.558;2023-08-20T07:17:47;100783.09;;;28.54;85.70
44457;BME280;30159;49.316;8.558;2023-08-20T07:20:14;100791.81;;;28.52;87.32
44457;BME280;30159;49.316;8.558;2023-08-20T07:22:40;100785.50;;;28.77;86.58
44457;BME280;30159;49.316;8.558;2023-08-20T07:25:07;100788.22;;;28.48;87.03
44457;BME280;30159;49.316;8.558;2023-08-20T07:27:34;100730.69;;;28.45;84.61
44457;BME280;30159;49.316;8.558;2023-08-20T07:30:02;100781.56;;;28.89;84.48
44457;BME280;30159;49.316;8.558;2023-08-20T07:32:29;100788.69;;;28.86;86.48
44457;BME280;30159;49.316;8.558;2023-08-20T07:34:55;100795.75;;;29.98;79.37
44457;BME280;30159;49.316;8.558;2023-08-20T07:37:22;100790.16;;;30.02;79.46
44457;BME280;30159;49.316;8.558;2023-08-20T07:39:48;100808.16;;;30.67;78.05
44457;BME280;30159;49.316;8.558;2023-08-20T07:42:15;100762.25;;;32.11;71.33
44457;BME280;30159;49.316;8.558;2023-08-20T07:44:43;100809.00;;;33.66;66.47
44457;BME280;30159;49.316;8.558;2023-08-20T07:47:11;100809.78;;;34.07;64.64
44457;BME280;30159;49.316;8.558;2023-08-20T07:49:38;100806.03;;;34.33;64.03
44457;BME280;30159;49.316;8.558;2023-08-20T07:52:04;100806.50;;;32.74;68.33
44457;BME280;30159;49.316;8.558;2023-08-20T07:54:31;100812.53;;;31.73;70.82
44457;BME280;30159;49.316;8.558;2023-08-20T07:56:57;100813.22;;;30.10;77.54
44457;BME280;30159;49.316;8.558;2023-08-20T07:59:24;100760.56;;;29.13;82.19
44457;BME280;30159;49.316;8.558;2023-08-20T08:01:50;100808.97;;;29.37;83.30
44457;BME280;30159;49.316;8.558;2023-08-20T08:04:18;100819.66;;;29.03;83.97
44457;BME280;30159;49.316;8.558;2023-08-20T08:06:45;100819.88;;;28.36;88.71
44457;BME280;30159;49.316;8.558;2023-08-20T08:09:18;100811.81;;;28.03;90.20
44457;BME280;30159;49.316;8.558;2023-08-20T08:11:46;100809.13;;;28.24;88.96
44457;BME280;30159;49.316;8.558;2023-08-20T08:14:12;100822.97;;;28.17;89.29
44457;BME280;30159;49.316;8.558;2023-08-20T08:16:39;100767.06;;;28.04;89.98
44457;BME280;30159;49.316;8.558;2023-08-20T08:19:05;100821.19;;;28.78;88.09
44457;BME280;30159;49.316;8.558;2023-08-20T08:21:33;100819.50;;;28.42;86.72
44457;BME280;30159;49.316;8.558;2023-08-20T08:24:00;100823.13;;;27.80;90.74
44457;BME280;30159;49.316;8.558;2023-08-20T08:26:27;100825.09;;;27.72;92.77
44457;BME280;30159;49.316;8.558;2023-08-20T08:28:54;100818.38;;;27.80;92.11
44457;BME280;30159;49.316;8.558;2023-08-20T08:31:21;100793.31;;;27.59;93.39
44457;BME280;30159;49.316;8.558;2023-08-20T08:33:47;100789.03;;;27.72;92.63
44457;BME280;30159;49.316;8.558;2023-08-20T08:36:14;100822.91;;;28.03;92.70
44457;BME280;30159;49.316;8.558;2023-08-20T08:38:43;100834.16;;;28.38;91.57
44457;BME280;30159;49.316;8.558;2023-08-20T08:41:11;100724.03;;;27.59;89.39
44457;BME280;30159;49.316;8.558;2023-08-20T08:43:38;100839.41;;;28.58;89.81
44457;BME280;30159;49.316;8.558;2023-08-20T08:46:06;100833.06;;;28.54;89.51
44457;BME280;30159;49.316;8.558;2023-08-20T08:48:34;100829.47;;;28.50;90.95
44457;BME280;30159;49.316;8.558;2023-08-20T08:51:01;100830.72;;;28.74;87.46
44457;BME280;30159;49.316;8.558;2023-08-20T08:53:30;100832.31;;;28.82;87.30
44457;BME280;30159;49.316;8.558;2023-08-20T08:55:58;100825.22;;;28.95;85.35
44457;BME280;30159;49.316;8.558;2023-08-20T08:58:25;100826.00;;;28.82;86.15
44457;BME280;30159;49.316;8.558;2023-08-20T09:00:52;100829.94;;;28.88;86.52
44457;BME280;30159;49.316;8.558;2023-08-20T09:03:18;100826.84;;;29.07;86.48
44457;BME280;30159;49.316;8.558;2023-08-20T09:05:46;100825.59;;;28.94;84.83
44457;BME280;30159;49.316;8.558;2023-08-20T09:08:19;100826.78;;;29.04;86.17
44457;BME280;30159;49.316;8.558;2023-08-20T09:10:46;100833.53;;;28.85;85.67
44457;BME280;30159;49.316;8.558;2023-08-20T09:13:14;100822.78;;;28.65;88.58
44457;BME280;30159;49.316;8.558;2023-08-20T09:15:40;100825.97;;;28.92;88.76
44457;BME280;30159;49.316;8.558;2023-08-20T09:18:09;100828.78;;;28.96;85.94
44457;BME280;30159;49.316;8.558;2023-08-20T09:20:36;100798.97;;;28.53;86.84
44457;BME280;30159;49.316;8.558;2023-08-20T09:23:03;100826.72;;;28.64;88.45
44457;BME280;30159;49.316;8.558;2023-08-20T09:25:30;100837.09;;;28.74;88.77
44457;BME280;30159;49.316;8.558;2023-08-20T09:27:56;100831.16;;;29.01;88.17
44457;BME280;30159;49.316;8.558;2023-08-20T09:30:25;100813.75;;;29.22;85.92
44457;BME280;30159;49.316;8.558;2023-08-20T09:33:03;100825.66;;;29.19;84.61
44457;BME280;30159;49.316;8.558;2023-08-20T09:35:30;100822.06;;;29.15;84.45
44457;BME280;30159;49.316;8.558;2023-08-20T09:37:59;100826.84;;;29.18;84.46
44457;BME280;30159;49.316;8.558;2023-08-20T09:40:26;100830.78;;;29.28;84.00
44457;BME280;30159;49.316;8.558;2023-08-20T09:42:53;100827.22;;;29.45;83.48
44457;BME280;30159;49.316;8.558;2023-08-20T09:45:20;100831.19;;;29.58;82.45
44457;BME280;30159;49.316;8.558;2023-08-20T09:47:49;100830.81;;;29.71;82.48
44457;BME280;30159;49.316;8.558;2023-08-20T09:50:17;100833.53;;;29.92;81.18
44457;BME280;30159;49.316;8.558;2023-08-20T09:52:48;100781.94;;;29.73;80.00
44457;BME280;30159;49.316;8.558;2023-08-20T09:55:21;100837.88;;;30.00;79.10
44457;BME280;30159;49.316;8.558;2023-08-20T09:57:47;100832.31;;;30.00;80.66
44457;BME280;30159;49.316;8.558;2023-08-20T10:00:14;100794.22;;;29.65;79.78
44457;BME280;30159;49.316;8.558;2023-08-20T10:02:41;100783.56;;;29.49;82.17
44457;BME280;30159;49.316;8.558;2023-08-20T10:05:11;100818.06;;;29.84;81.82
44457;BME280;30159;49.316;8.558;2023-08-20T10:07:38;100839.47;;;29.91;80.45
44457;BME280;30159;49.316;8.558;2023-08-20T10:10:06;100809.72;;;29.84;77.75
44457;BME280;30159;49.316;8.558;2023-08-20T10:12:34;100821.16;;;30.04;77.20
44457;BME280;30159;49.316;8.558;2023-08-20T10:15:01;100813.19;;;30.17;76.11
44457;BME280;30159;49.316;8.558;2023-08-20T10:17:29;100808.75;;;30.30;75.89
44457;BME280;30159;49.316;8.558;2023-08-20T10:19:58;100802.78;;;30.35;75.07
44457;BME280;30159;49.316;8.558;2023-08-20T10:22:33;100668.00;;;29.41;75.86
44457;BME280;30159;49.316;8.558;2023-08-20T10:25:05;100809.97;;;30.29;76.73
44457;BME280;30159;49.316;8.558;2023-08-20T10:27:34;100800.03;;;30.24;76.93
44457;BME280;30159;49.316;8.558;2023-08-20T10:30:03;100797.28;;;30.14;76.75
44457;BME280;30159;49.316;8.558;2023-08-20T10:32:47;100800.47;;;30.09;73.41
44457;BME280;30159;49.316;8.558;2023-08-20T10:35:15;100804.84;;;30.17;72.21
44457;BME280;30159;49.316;8.558;2023-08-20T10:38:06;100795.59;;;30.45;73.60
44457;BME280;30159;49.316;8.558;2023-08-20T10:40:52;100794.75;;;30.52;72.00
44457;BME280;30159;49.316;8.558;2023-08-20T10:43:31;100793.97;;;30.48;73.13
44457;BME280;30159;49.316;8.558;2023-08-20T10:46:15;100799.50;;;30.55;72.77
44457;BME280;30159;49.316;8.558;2023-08-20T10:48:42;100797.06;;;30.60;72.12
44457;BME280;30159;49.316;8.558;2023-08-20T10:51:11;100797.44;;;30.66;71.27
44457;BME280;30159;49.316;8.558;2023-08-20T10:53:40;100798.56;;;30.72;72.66
44457;BME280;30159;49.316;8.558;2023-08-20T10:56:08;100788.59;;;30.78;71.30
44457;BME280;30159;49.316;8.558;2023-08-20T10:58:35;100796.16;;;30.85;68.93
44457;BME280;30159;49.316;8.558;2023-08-20T11:01:15;100796.19;;;30.74;68.76
44457;BME280;30159;49.316;8.558;2023-08-20T11:03:43;100792.97;;;30.79;68.77
44457;BME280;30159;49.316;8.558;2023-08-20T11:06:10;100794.47;;;30.95;69.34
44457;BME280;30159;49.316;8.558;2023-08-20T11:08:38;100790.84;;;31.01;68.51
44457;BME280;30159;49.316;8.558;2023-08-20T11:11:05;100787.16;;;31.15;67.33
44457;BME280;30159;49.316;8.558;2023-08-20T11:13:33;100793.44;;;31.26;68.55
44457;BME280;30159;49.316;8.558;2023-08-20T11:16:01;100755.25;;;31.20;68.59
44457;BME280;30159;49.316;8.558;2023-08-20T11:18:30;100784.72;;;31.62;67.50
44457;BME280;30159;49.316;8.558;2023-08-20T11:20:58;100775.44;;;31.73;67.34
44457;BME280;30159;49.316;8.558;2023-08-20T11:23:25;100781.38;;;31.78;67.50
44457;BME280;30159;49.316;8.558;2023-08-20T11:25:53;100784.47;;;31.87;67.18
44457;BME280;30159;49.316;8.558;2023-08-20T11:28:19;100782.72;;;31.63;66.42
44457;BME280;30159;49.316;8.558;2023-08-20T11:30:46;100777.06;;;31.70;66.75
44457;BME280;30159;49.316;8.558;2023-08-20T11:33:13;100787.03;;;31.71;66.57
44457;BME280;30159;49.316;8.558;2023-08-20T11:35:41;100784.41;;;31.57;65.60
44457;BME280;30159;49.316;8.558;2023-08-20T11:38:09;100778.47;;;31.51;67.33
44457;BME280;30159;49.316;8.558;2023-08-20T11:40:36;100786.06;;;31.50;66.78
44457;BME280;30159;49.316;8.558;2023-08-20T11:43:05;100767.66;;;31.57;68.19
44457;BME280;30159;49.316;8.558;2023-08-20T11:45:32;100703.84;;;31.24;66.16
44457;BME280;30159;49.316;8.558;2023-08-20T11:47:58;100777.34;;;31.79;65.44
44457;BME280;30159;49.316;8.558;2023-08-20T11:50:25;100776.56;;;31.82;66.16
44457;BME280;30159;49.316;8.558;2023-08-20T11:52:53;100776.03;;;31.91;65.37
44457;BME280;30159;49.316;8.558;2023-08-20T11:55:24;100781.44;;;32.09;66.11
44457;BME280;30159;49.316;8.558;2023-08-20T11:57:51;100763.19;;;32.01;66.52
44457;BME280;30159;49.316;8.558;2023-08-20T12:00:25;100758.22;;;32.16;65.55
44457;BME280;30159;49.316;8.558;2023-08-20T12:02:53;100772.25;;;32.39;65.71
44457;BME280;30159;49.316;8.558;2023-08-20T12:05:20;100727.97;;;32.10;64.89
44457;BME280;30159;49.316;8.558;2023-08-20T12:07:55;100758.16;;;32.19;64.96
44457;BME280;30159;49.316;8.558;2023-08-20T12:10:22;100768.97;;;32.17;65.99
44457;BME280;30159;49.316;8.558;2023-08-20T12:12:51;100759.44;;;32.15;65.40
44457;BME280;30159;49.316;8.558;2023-08-20T12:15:18;100757.25;;;32.26;65.83
44457;BME280;30159;49.316;8.558;2023-08-20T12:17:59;100748.88;;;32.26;66.63
44457;BME280;30159;49.316;8.558;2023-08-20T12:20:27;100750.13;;;32.25;66.67
44457;BME280;30159;49.316;8.558;2023-08-20T12:22:56;100749.22;;;32.31;65.23
44457;BME280;30159;49.316;8.558;2023-08-20T12:25:23;100729.13;;;32.40;66.42
44457;BME280;30159;49.316;8.558;2023-08-20T12:27:49;100724.13;;;32.28;67.50
44457;BME280;30159;49.316;8.558;2023-08-20T12:30:16;100732.75;;;32.41;66.78
44457;BME280;30159;49.316;8.558;2023-08-20T12:32:43;100745.72;;;32.54;63.70
44457;BME280;30159;49.316;8.558;2023-08-20T12:35:11;100740.63;;;32.46;64.42
44457;BME280;30159;49.316;8.558;2023-08-20T12:37:38;100748.66;;;32.71;63.88
44457;BME280;30159;49.316;8.558;2023-08-20T12:40:06;100705.81;;;32.54;62.48
44457;BME280;30159;49.316;8.558;2023-08-20T12:42:36;100737.41;;;32.74;63.25
44457;BME280;30159;49.316;8.558;2023-08-20T12:45:03;100739.06;;;32.72;62.23
44457;BME280;30159;49.316;8.558;2023-08-20T12:47:30;100735.28;;;32.59;64.85